Time;durP1;ratioP1;P1;durP2;ratioP2;P2;SDS_P1;SDS_P2;PMS_P1;PMS_P2;Temp;Humidity;BMP_temperature;BMP_pressure;BME280_temperature;BME280_humidity;BME280_pressure;Samples;Min_cycle;Max_cycle;Signal;HPM_P1;HPM_P2
2021/11/24 00:00:44;;;;;;;24.43;13.43;;;;;;;0.59;100.00;99974.42;1714156;83;21015;-68
2021/11/24 00:03:11;;;;;;;25.68;13.08;;;;;;;0.55;100.00;99971.94;1715231;83;21001;-68
2021/11/24 00:05:39;;;;;;;22.20;12.43;;;;;;;0.53;100.00;99970.01;1697300;84;20955;-68
2021/11/24 00:08:06;;;;;;;23.52;13.75;;;;;;;0.53;100.00;99980.81;1664437;85;21125;-68
2021/11/24 00:10:34;;;;;;;23.22;11.80;;;;;;;0.52;100.00;99981.05;1660542;86;21024;-68
2021/11/24 00:13:05;;;;;;;26.35;12.05;;;;;;;0.49;100.00;99984.23;1664447;84;20951;-68
2021/11/24 00:15:32;;;;;;;20.05;11.22;;;;;;;0.50;100.00;99988.05;1672506;84;20908;-68
2021/11/24 00:18:00;;;;;;;19.52;11.95;;;;;;;0.51;100.00;99983.47;1709430;84;20874;-68
2021/11/24 00:20:27;;;;;;;24.43;12.30;;;;;;;0.52;100.00;99989.98;1658244;86;21101;-67
2021/11/24 00:22:54;;;;;;;22.65;12.63;;;;;;;0.53;100.00;99994.33;1694494;83;21063;-69
2021/11/24 00:25:21;;;;;;;21.60;11.97;;;;;;;0.55;100.00;99996.26;1667654;84;20979;-68
2021/11/24 00:27:48;;;;;;;21.93;12.05;;;;;;;0.54;100.00;99993.27;1694678;83;20951;-68
2021/11/24 00:30:14;;;;;;;23.27;12.65;;;;;;;0.55;100.00;99992.73;1666027;84;20947;-68
2021/11/24 00:32:41;;;;;;;21.50;11.97;;;;;;;0.57;100.00;99997.37;1692235;83;21145;-68
2021/11/24 00:35:09;;;;;;;21.45;12.03;;;;;;;0.59;100.00;100000.09;1657740;85;21432;-68
2021/11/24 00:37:36;;;;;;;20.20;11.88;;;;;;;0.60;100.00;100003.61;1690850;82;20884;-68
2021/11/24 00:40:05;;;;;;;24.37;11.15;;;;;;;0.58;100.00;100000.33;1699857;83;20976;-70
2021/11/24 00:42:31;;;;;;;20.95;12.28;;;;;;;0.54;100.00;99998.67;1707488;83;21591;-68
2021/11/24 00:44:58;;;;;;;20.37;11.75;;;;;;;0.55;100.00;100004.89;1726078;83;21787;-70
2021/11/24 00:47:25;;;;;;;19.32;11.57;;;;;;;0.53;100.00;100009.19;1723491;83;20964;-68
2021/11/24 00:49:52;;;;;;;22.67;11.25;;;;;;;0.49;100.00;100004.50;1721408;82;21034;-68
2021/11/24 00:52:18;;;;;;;20.40;11.18;;;;;;;0.49;100.00;100010.72;1725145;82;20959;-68
2021/11/24 00:54:46;;;;;;;20.70;11.35;;;;;;;0.48;100.00;100014.48;1731743;82;20940;-68
2021/11/24 00:57:13;;;;;;;16.55;9.90;;;;;;;0.47;100.00;100018.77;1719868;81;21177;-69
2021/11/24 00:59:40;;;;;;;21.42;11.93;;;;;;;0.49;100.00;100016.13;1724293;83;20935;-68
2021/11/24 01:02:06;;;;;;;21.95;11.40;;;;;;;0.50;100.00;100019.64;1735486;82;21354;-68
2021/11/24 01:04:33;;;;;;;24.50;12.73;;;;;;;0.53;100.00;100015.94;1695766;83;21025;-69
2021/11/24 01:07:00;;;;;;;21.40;11.75;;;;;;;0.54;100.00;100019.46;1694668;84;21114;-68
2021/11/24 01:09:27;;;;;;;23.32;12.43;;;;;;;0.52;100.00;100012.94;1663382;85;21137;-68
2021/11/24 01:11:53;;;;;;;21.73;12.33;;;;;;;0.53;100.00;100020.52;1655440;86;21503;-68
2021/11/24 01:14:21;;;;;;;27.40;13.13;;;;;;;0.53;100.00;100021.87;1656316;85;21454;-68
2021/11/24 01:16:47;;;;;;;26.77;12.65;;;;;;;0.52;100.00;100021.05;1660308;86;20929;-68
2021/11/24 01:19:14;;;;;;;27.90;13.20;;;;;;;0.50;100.00;100020.47;1661665;86;20924;-68
2021/11/24 01:21:42;;;;;;;21.77;11.80;;;;;;;0.52;100.00;100018.88;1660752;86;21228;-68
2021/11/24 01:24:08;;;;;;;19.15;10.25;;;;;;;0.51;100.00;100032.09;1657011;86;20952;-68
2021/11/24 01:26:35;;;;;;;24.60;12.93;;;;;;;0.52;100.00;100031.85;1655512;84;21070;-68
2021/11/24 01:29:03;;;;;;;23.05;12.07;;;;;;;0.49;100.00;100025.58;1658509;86;21002;-69
2021/11/24 01:31:30;;;;;;;22.65;12.43;;;;;;;0.46;100.00;100027.41;1671041;84;21458;-70
2021/11/24 01:33:56;;;;;;;20.97;12.13;;;;;;;0.46;100.00;100031.45;1708041;82;21492;-70
2021/11/24 01:36:23;;;;;;;21.27;12.05;;;;;;;0.46;100.00;100033.33;1706603;83;20904;-69
2021/11/24 01:38:50;;;;;;;19.67;11.78;;;;;;;0.45;100.00;100035.21;1725448;81;20952;-69
2021/11/24 01:41:16;;;;;;;19.70;11.63;;;;;;;0.46;100.00;100038.73;1699765;83;21003;-69
2021/11/24 01:43:43;;;;;;;20.82;11.03;;;;;;;0.45;100.00;100033.86;1660719;85;21011;-69
2021/11/24 01:46:09;;;;;;;22.27;11.73;;;;;;;0.46;100.00;100031.45;1664487;84;20986;-68
2021/11/24 01:48:36;;;;;;;23.42;12.65;;;;;;;0.48;100.00;100034.73;1660623;84;20951;-68
2021/11/24 01:51:03;;;;;;;18.27;10.53;;;;;;;0.48;100.00;100040.67;1664839;84;20976;-68
2021/11/24 01:53:30;;;;;;;18.27;11.45;;;;;;;0.46;100.00;100032.80;1667373;84;20923;-69
2021/11/24 01:55:58;;;;;;;19.25;10.00;;;;;;;0.46;100.00;100028.75;1710436;83;20874;-69
2021/11/24 01:58:25;;;;;;;21.95;11.25;;;;;;;0.47;100.00;100035.80;1696525;83;21504;-69
2021/11/24 02:00:52;;;;;;;17.95;10.50;;;;;;;0.45;100.00;100032.51;1690955;84;21003;-69
2021/11/24 02:03:20;;;;;;;17.32;10.93;;;;;;;0.47;100.00;100044.43;1664052;84;20923;-68
2021/11/24 02:05:47;;;;;;;19.70;11.05;;;;;;;0.47;100.00;100041.20;1692946;83;21015;-68
2021/11/24 02:08:14;;;;;;;21.68;11.70;;;;;;;0.49;100.00;100034.20;1685645;83;21082;-69
2021/11/24 02:10:40;;;;;;;22.95;12.18;;;;;;;0.51;100.00;100042.89;1695216;83;20951;-69
2021/11/24 02:13:07;;;;;;;19.25;11.83;;;;;;;0.50;100.00;100040.73;1703039;81;21003;-69
2021/11/24 02:15:33;;;;;;;22.13;10.80;;;;;;;0.50;100.00;100047.48;1706708;83;20943;-68
2021/11/24 02:18:02;;;;;;;19.77;10.32;;;;;;;0.50;100.00;100043.95;1719895;83;21454;-68
2021/11/24 02:20:45;;;;;;;21.05;11.83;;;;;;;0.51;100.00;100049.66;1718344;83;20983;-69
2021/11/24 02:23:13;;;;;;;19.20;11.25;;;;;;;0.51;100.00;100055.88;1715475;83;21166;-70
2021/11/24 02:25:42;;;;;;;24.25;13.00;;;;;;;0.52;100.00;100041.84;1717060;83;20926;-70
2021/11/24 02:28:09;;;;;;;25.70;13.72;;;;;;;0.50;100.00;100054.76;1715392;83;21005;-70
2021/11/24 02:30:35;;;;;;;24.63;12.98;;;;;;;0.49;100.00;100047.72;1717650;83;20950;-70
2021/11/24 02:33:02;;;;;;;22.58;12.30;;;;;;;0.50;100.00;100043.42;1719621;83;21542;-69
2021/11/24 02:35:31;;;;;;;16.40;10.50;;;;;;;0.53;100.00;100043.48;1719580;83;21229;-69
2021/11/24 02:37:58;;;;;;;19.23;11.88;;;;;;;0.54;100.00;100047.30;1719477;83;20918;-69
2021/11/24 02:40:31;;;;;;;23.73;12.37;;;;;;;0.52;100.00;100046.71;1718995;83;20930;-70
2021/11/24 02:42:58;;;;;;;20.95;11.65;;;;;;;0.50;100.00;100052.88;1719653;83;21459;-69
2021/11/24 02:45:25;;;;;;;18.55;11.45;;;;;;;0.49;100.00;100055.30;1718824;83;20982;-70
2021/11/24 02:47:51;;;;;;;16.97;10.95;;;;;;;0.48;100.00;100051.47;1719344;83;21135;-70
2021/11/24 02:50:18;;;;;;;21.80;11.22;;;;;;;0.44;100.00;100047.08;1717943;83;20919;-70
2021/11/24 02:52:44;;;;;;;22.62;11.68;;;;;;;0.41;100.00;100059.70;1718795;83;21039;-70
2021/11/24 02:55:12;;;;;;;17.17;10.88;;;;;;;0.39;100.00;100059.12;1719034;83;20942;-70
2021/11/24 02:57:42;;;;;;;21.00;12.10;;;;;;;0.38;100.00;100060.70;1688069;84;21450;-70
2021/11/24 03:00:17;;;;;;;18.20;11.55;;;;;;;0.35;100.00;100057.13;1687773;84;21135;-70
2021/11/24 03:02:46;;;;;;;17.07;11.35;;;;;;;0.31;100.00;100060.30;1706415;83;20994;-70
2021/11/24 03:05:12;;;;;;;20.70;11.12;;;;;;;0.29;100.00;100058.89;1692363;83;20959;-70
2021/11/24 03:07:40;;;;;;;21.10;11.57;;;;;;;0.31;100.00;100055.42;1694607;84;20971;-70
2021/11/24 03:10:09;;;;;;;20.43;11.40;;;;;;;0.32;100.00;100065.17;1698910;83;21002;-70
2021/11/24 03:12:36;;;;;;;17.55;10.10;;;;;;;0.32;100.00;100066.52;1690685;83;21487;-70
2021/11/24 03:15:04;;;;;;;20.25;11.18;;;;;;;0.32;100.00;100069.22;1694065;84;21589;-70
2021/11/24 03:17:31;;;;;;;16.27;10.15;;;;;;;0.32;100.00;100073.27;1701438;83;20908;-70
2021/11/24 03:19:59;;;;;;;18.95;9.88;;;;;;;0.33;100.00;100073.56;1694997;83;20896;-70
2021/11/24 03:22:27;;;;;;;20.45;11.73;;;;;;;0.35;100.00;100075.50;1682901;85;21094;-70
2021/11/24 03:24:57;;;;;;;24.47;12.88;;;;;;;0.34;100.00;100073.86;1680060;85;21793;-71
2021/11/24 03:27:31;;;;;;;20.35;11.95;;;;;;;0.35;100.00;100075.50;1679673;85;20924;-71
2021/11/24 03:29:59;;;;;;;21.45;11.05;;;;;;;0.33;100.00;100068.98;1698768;83;20879;-71
2021/11/24 03:32:26;;;;;;;17.27;10.60;;;;;;;0.34;100.00;100075.20;1694638;84;21004;-71
2021/11/24 03:34:55;;;;;;;19.87;11.00;;;;;;;0.33;100.00;100076.27;1690036;83;45632;-71
2021/11/24 03:37:21;;;;;;;20.50;11.85;;;;;;;0.32;100.00;100092.17;1689257;83;21192;-70
2021/11/24 03:39:48;;;;;;;21.07;10.10;;;;;;;0.33;100.00;100087.89;1692518;83;20947;-71
2021/11/24 03:42:16;;;;;;;20.70;11.48;;;;;;;0.33;100.00;100087.89;1703059;83;20990;-71
2021/11/24 03:44:43;;;;;;;19.85;10.72;;;;;;;0.37;100.00;100084.72;1699382;84;21534;-71
2021/11/24 03:47:10;;;;;;;17.32;10.90;;;;;;;0.38;100.00;100089.89;1682119;83;20916;-71
2021/11/24 03:49:37;;;;;;;17.85;10.45;;;;;;;0.39;100.00;100090.18;1690742;83;21514;-70
2021/11/24 03:52:04;;;;;;;17.37;9.35;;;;;;;0.40;100.00;100093.17;1693020;84;21510;-70
2021/11/24 03:54:32;;;;;;;18.62;10.40;;;;;;;0.41;100.00;100095.34;1687648;83;21040;-70
2021/11/24 03:56:59;;;;;;;16.55;10.18;;;;;;;0.41;100.00;100092.12;1690741;84;20975;-67
2021/11/24 03:59:26;;;;;;;18.42;10.23;;;;;;;0.41;100.00;100093.47;1694722;84;21003;-67
2021/11/24 04:01:53;;;;;;;19.07;10.82;;;;;;;0.42;100.00;100092.94;1694859;84;21751;-67
2021/11/24 04:04:19;;;;;;;22.25;10.95;;;;;;;0.41;100.00;100094.81;1687711;83;21467;-67
2021/11/24 04:06:47;;;;;;;18.42;10.72;;;;;;;0.42;100.00;100092.94;1697137;84;20903;-67
2021/11/24 04:09:14;;;;;;;20.48;11.57;;;;;;;0.42;100.00;100099.16;1694536;84;20991;-67
2021/11/24 04:11:40;;;;;;;19.45;11.43;;;;;;;0.42;100.00;100094.29;1692243;83;20915;-67
2021/11/24 04:14:07;;;;;;;17.90;11.53;;;;;;;0.41;100.00;100092.64;1694669;84;21165;-67
2021/11/24 04:16:34;;;;;;;19.60;11.70;;;;;;;0.40;100.00;100089.65;1692273;83;20968;-68
2021/11/24 04:19:01;;;;;;;21.12;12.43;;;;;;;0.40;100.00;100091.82;1692523;83;20905;-68
2021/11/24 04:21:30;;;;;;;21.37;12.23;;;;;;;0.38;100.00;100092.59;1689368;83;21469;-68
2021/11/24 04:23:58;;;;;;;19.07;12.10;;;;;;;0.37;100.00;100103.09;1694508;83;20935;-68
2021/11/24 04:26:25;;;;;;;21.42;11.97;;;;;;;0.34;100.00;100104.92;1693550;83;21141;-68
2021/11/24 04:28:51;;;;;;;24.60;13.03;;;;;;;0.32;100.00;100108.37;1683163;83;20948;-68
2021/11/24 04:31:20;;;;;;;26.02;12.60;;;;;;;0.31;100.00;100108.91;1682376;84;20961;-68
2021/11/24 04:33:46;;;;;;;22.62;12.53;;;;;;;0.34;100.00;100111.67;1696714;84;21503;-68
2021/11/24 04:36:13;;;;;;;23.27;12.68;;;;;;;0.36;100.00;100116.31;1690583;83;21090;-68
2021/11/24 04:38:41;;;;;;;23.98;12.55;;;;;;;0.39;100.00;100111.78;1697616;83;21213;-68
2021/11/24 04:41:08;;;;;;;16.57;9.95;;;;;;;0.44;100.00;100114.61;1682592;83;20865;-68
2021/11/24 04:43:39;;;;;;;22.32;12.73;;;;;;;0.48;100.00;100114.42;1689904;83;21100;-68
2021/11/24 04:46:02;;;;;;;22.20;12.60;;;;;;;0.53;100.00;100116.42;1700594;84;21046;-68
2021/11/24 04:48:29;;;;;;;23.73;12.13;;;;;;;0.53;100.00;100119.13;1707743;83;20827;-68
2021/11/24 04:50:56;;;;;;;22.93;11.85;;;;;;;0.56;100.00;100117.30;1701872;82;21148;-68
2021/11/24 04:53:23;;;;;;;20.15;11.95;;;;;;;0.56;100.00;100115.42;1686336;83;20972;-68
2021/11/24 04:55:51;;;;;;;19.27;11.50;;;;;;;0.59;100.00;100117.63;1717234;83;20892;-68
2021/11/24 04:58:18;;;;;;;18.55;11.08;;;;;;;0.63;100.00;100121.49;1723859;83;21431;-69
2021/11/24 05:00:44;;;;;;;25.02;11.68;;;;;;;0.65;100.00;100119.91;1719263;82;20999;-68
2021/11/24 05:03:11;;;;;;;21.45;12.60;;;;;;;0.64;100.00;100124.48;1714405;83;21097;-69
2021/11/24 05:05:38;;;;;;;22.32;12.15;;;;;;;0.63;100.00;100122.02;1727541;82;20939;-68
2021/11/24 05:08:07;;;;;;;21.45;11.53;;;;;;;0.62;100.00;100127.95;1723655;83;20904;-68
2021/11/24 05:10:34;;;;;;;23.55;11.55;;;;;;;0.60;100.00;100131.42;1714702;81;21006;-69
2021/11/24 05:13:01;;;;;;;21.33;12.03;;;;;;;0.59;100.00;100133.01;1715765;81;21463;-68
2021/11/24 05:15:36;;;;;;;23.27;12.20;;;;;;;0.57;100.00;100135.98;1720360;82;21976;-68
2021/11/24 05:18:02;;;;;;;17.55;11.75;;;;;;;0.60;100.00;100139.53;1698890;83;20984;-68
2021/11/24 05:20:31;;;;;;;21.20;11.97;;;;;;;0.60;100.00;100140.88;1662037;84;20860;-68
2021/11/24 05:23:02;;;;;;;20.82;12.30;;;;;;;0.62;100.00;100140.12;1673816;84;20992;-69
2021/11/24 05:25:31;;;;;;;20.03;11.97;;;;;;;0.64;100.00;100138.00;1712030;82;20951;-68
2021/11/24 05:27:57;;;;;;;22.62;12.37;;;;;;;0.63;100.00;100150.39;1711352;81;21777;-68
2021/11/24 05:30:27;;;;;;;19.45;11.88;;;;;;;0.62;100.00;100153.63;1726538;82;20911;-69
2021/11/24 05:32:54;;;;;;;19.98;11.90;;;;;;;0.61;100.00;100151.98;1715039;83;21047;-69
2021/11/24 05:35:21;;;;;;;21.02;12.33;;;;;;;0.60;100.00;100151.69;1699730;83;20939;-69
2021/11/24 05:37:50;;;;;;;18.60;11.45;;;;;;;0.58;100.00;100153.80;1664114;85;21609;-69
2021/11/24 05:40:17;;;;;;;22.10;12.63;;;;;;;0.57;100.00;100152.72;1665742;86;21573;-69
2021/11/24 05:42:49;;;;;;;19.42;11.75;;;;;;;0.56;100.00;100161.35;1664300;85;20923;-69
2021/11/24 05:45:42;;;;;;;23.22;12.70;;;;;;;0.56;100.00;100151.89;1672591;85;20992;-68
2021/11/24 05:47:54;;;;;;;20.92;12.13;;;;;;;0.58;100.00;100161.91;1683843;84;21463;-69
2021/11/24 05:50:21;;;;;;;22.80;12.45;;;;;;;0.59;100.00;100158.67;1663048;84;21640;-70
2021/11/24 05:52:49;;;;;;;22.40;12.53;;;;;;;0.59;100.00;100162.20;1667877;84;21955;-68
2021/11/24 05:55:16;;;;;;;22.40;13.28;;;;;;;0.58;100.00;100163.79;1704759;83;21553;-70
2021/11/24 05:57:44;;;;;;;24.25;13.43;;;;;;;0.59;100.00;100165.43;1656431;85;20971;-69
2021/11/24 06:00:13;;;;;;;23.25;12.65;;;;;;;0.62;100.00;100172.54;1706727;83;20919;-67
2021/11/24 06:02:40;;;;;;;21.40;13.45;;;;;;;0.62;100.00;100175.24;1689761;83;20943;-67
2021/11/24 06:05:08;;;;;;;24.12;13.05;;;;;;;0.63;100.00;100167.95;1712180;81;21143;-67
2021/11/24 06:07:35;;;;;;;25.27;14.35;;;;;;;0.64;100.00;100170.42;1739871;82;21461;-66
2021/11/24 06:10:04;;;;;;;22.70;12.90;;;;;;;0.66;100.00;100171.55;1740843;82;21055;-74
2021/11/24 06:12:31;;;;;;;24.45;13.55;;;;;;;0.68;100.00;100173.48;1717687;83;20956;-68
2021/11/24 06:14:59;;;;;;;23.70;12.98;;;;;;;0.68;100.00;100175.36;1708425;82;21455;-72
2021/11/24 06:17:25;;;;;;;25.08;14.63;;;;;;;0.68;100.00;100178.88;1711643;82;21833;-72
2021/11/24 06:19:52;;;;;;;22.00;13.05;;;;;;;0.70;100.00;100181.35;1723076;81;21522;-67
2021/11/24 06:22:19;;;;;;;22.98;12.60;;;;;;;0.72;100.00;100184.11;1727767;81;20964;-67
2021/11/24 06:24:47;;;;;;;21.90;13.00;;;;;;;0.75;100.00;100179.59;1723736;83;20956;-67
2021/11/24 06:27:16;;;;;;;20.52;12.82;;;;;;;0.79;100.00;100177.23;1717155;81;21574;-68
2021/11/24 06:29:43;;;;;;;21.93;13.22;;;;;;;0.82;100.00;100180.28;1723606;83;21043;-68
2021/11/24 06:32:11;;;;;;;23.40;12.90;;;;;;;0.85;100.00;100178.47;1723686;83;20904;-68
2021/11/24 06:34:38;;;;;;;24.40;14.33;;;;;;;0.88;100.00;100177.99;1724462;82;20872;-68
2021/11/24 06:37:04;;;;;;;25.82;13.22;;;;;;;0.91;100.00;100182.10;1723658;83;21011;-68
2021/11/24 06:39:31;;;;;;;27.30;13.68;;;;;;;0.92;100.00;100185.10;1721334;82;20872;-68
2021/11/24 06:41:59;;;;;;;24.92;13.43;;;;;;;0.96;100.00;100183.56;1723380;81;21201;-68
2021/11/24 06:44:26;;;;;;;22.22;13.08;;;;;;;1.00;100.00;100188.80;1719529;81;21483;-68
2021/11/24 06:46:52;;;;;;;21.20;12.73;;;;;;;1.04;100.00;100187.79;1701064;83;20980;-67
2021/11/24 06:49:19;;;;;;;22.15;12.82;;;;;;;1.06;100.00;100185.67;1711714;83;21490;-67
2021/11/24 06:51:47;;;;;;;26.15;15.38;;;;;;;1.05;100.00;100186.73;1734792;82;20947;-69
2021/11/24 06:54:17;;;;;;;27.37;14.25;;;;;;;1.04;100.00;100185.91;1710499;81;21143;-68
2021/11/24 06:56:49;;;;;;;23.65;14.03;;;;;;;1.07;100.00;100186.78;1711521;81;21600;-69
2021/11/24 06:59:16;;;;;;;25.70;13.55;;;;;;;1.09;100.00;100189.25;1682467;82;21073;-68
2021/11/24 07:01:43;;;;;;;25.15;13.90;;;;;;;1.13;100.00;100194.48;1715257;83;20979;-69
2021/11/24 07:04:11;;;;;;;32.38;19.82;;;;;;;1.12;100.00;100190.95;1696914;83;20968;-69
2021/11/24 07:06:38;;;;;;;24.65;14.63;;;;;;;1.15;100.00;100192.36;1705847;81;21102;-69
2021/11/24 07:09:10;;;;;;;25.77;16.32;;;;;;;1.20;100.00;100187.02;1707512;81;21566;-69
2021/11/24 07:11:36;;;;;;;25.68;15.35;;;;;;;1.25;100.00;100195.24;1701050;83;21019;-70
2021/11/24 07:14:04;;;;;;;23.20;14.03;;;;;;;1.29;100.00;100196.41;1700259;84;20964;-69
2021/11/24 07:16:31;;;;;;;23.47;14.45;;;;;;;1.33;100.00;100197.58;1708353;84;20897;-70
2021/11/24 07:18:57;;;;;;;26.25;15.38;;;;;;;1.36;100.00;100196.28;1708282;84;21126;-69
2021/11/24 07:21:24;;;;;;;25.15;15.18;;;;;;;1.38;100.00;100196.86;1722502;83;21003;-70
2021/11/24 07:23:50;;;;;;;24.05;14.85;;;;;;;1.43;100.00;100198.31;1719450;81;20957;-70
2021/11/24 07:26:17;;;;;;;24.77;15.03;;;;;;;1.47;100.00;100206.25;1708258;84;20968;-70
2021/11/24 07:28:45;;;;;;;27.42;15.88;;;;;;;1.50;100.00;100204.41;1725861;82;20907;-70
2021/11/24 07:31:11;;;;;;;22.50;13.93;;;;;;;1.53;100.00;100208.00;1671235;84;21979;-69
2021/11/24 07:33:38;;;;;;;61.28;17.70;;;;;;;1.54;100.00;100207.75;1721601;82;21459;-69
2021/11/24 07:36:05;;;;;;;206.25;42.85;;;;;;;1.58;100.00;100204.03;1719000;81;20936;-69
2021/11/24 07:38:31;;;;;;;49.65;16.02;;;;;;;1.61;100.00;100214.38;1708077;83;20881;-69
2021/11/24 07:40:58;;;;;;;85.50;23.05;;;;;;;1.64;100.00;100213.37;1723853;82;20828;-69
2021/11/24 07:43:24;;;;;;;257.15;51.73;;;;;;;1.84;100.00;100218.33;1734896;82;22083;-70
2021/11/24 07:45:51;;;;;;;20.05;12.18;;;;;;;2.03;100.00;100210.00;1721213;82;20892;-69
2021/11/24 07:48:18;;;;;;;91.82;20.75;;;;;;;2.12;100.00;100217.48;1718616;81;20908;-70
2021/11/24 07:50:44;;;;;;;23.35;13.03;;;;;;;2.08;100.00;100218.22;1690340;84;20988;-69
2021/11/24 07:53:12;;;;;;;37.08;14.68;;;;;;;2.02;100.00;100220.01;1654613;86;20965;-68
2021/11/24 07:55:39;;;;;;;23.00;14.00;;;;;;;2.04;100.00;100223.30;1682695;84;21963;-67
2021/11/24 07:58:07;;;;;;;58.17;17.98;;;;;;;2.05;100.00;100222.77;1688218;84;21487;-67
2021/11/24 08:00:34;;;;;;;32.10;15.20;;;;;;;2.04;100.00;100229.25;1686908;84;21539;-69
2021/11/24 08:03:00;;;;;;;28.70;13.83;;;;;;;2.05;100.00;100233.59;1682658;84;20924;-69
2021/11/24 08:05:27;;;;;;;42.48;21.48;;;;;;;2.05;100.00;100233.59;1660822;86;20980;-70
2021/11/24 08:07:55;;;;;;;28.10;13.20;;;;;;;2.05;100.00;100225.47;1660849;86;21523;-69
2021/11/24 08:10:23;;;;;;;16.77;11.45;;;;;;;2.09;100.00;100230.69;1666817;84;21455;-69
2021/11/24 08:12:50;;;;;;;49.23;26.20;;;;;;;2.09;100.00;100234.22;1692381;83;21555;-70
2021/11/24 08:15:16;;;;;;;46.05;26.27;;;;;;;2.08;100.00;100233.11;1688535;83;21003;-71
2021/11/24 08:17:43;;;;;;;21.52;12.78;;;;;;;2.11;100.00;100233.98;1691518;83;20999;-69
2021/11/24 08:20:11;;;;;;;22.73;13.53;;;;;;;2.11;100.00;100233.45;1687777;84;21779;-68
2021/11/24 08:22:37;;;;;;;21.02;12.35;;;;;;;2.14;100.00;100235.67;1663688;85;20901;-74
2021/11/24 08:25:04;;;;;;;19.57;11.10;;;;;;;2.18;100.00;100231.94;1718453;82;20972;-72
2021/11/24 08:27:31;;;;;;;18.60;11.22;;;;;;;2.20;100.00;100237.94;1686064;83;21443;-70
2021/11/24 08:29:58;;;;;;;18.82;11.12;;;;;;;2.20;100.00;100236.05;1675712;84;21490;-71
2021/11/24 08:32:24;;;;;;;19.65;11.08;;;;;;;2.23;100.00;100235.56;1696621;83;21481;-70
2021/11/24 08:34:52;;;;;;;20.57;12.37;;;;;;;2.23;100.00;100240.16;1697942;83;21079;-71
2021/11/24 08:37:21;;;;;;;18.17;11.03;;;;;;;2.24;100.00;100233.67;1658420;86;21564;-71
2021/11/24 08:39:48;;;;;;;18.57;11.60;;;;;;;2.24;100.00;100224.20;1706109;83;21574;-69
2021/11/24 08:42:15;;;;;;;17.75;11.20;;;;;;;2.24;100.00;100226.91;1664016;86;21032;-69
2021/11/24 08:44:43;;;;;;;17.48;10.70;;;;;;;2.25;100.00;100229.91;1665718;86;21185;-69
2021/11/24 08:47:11;;;;;;;19.48;11.00;;;;;;;2.30;100.00;100225.39;1675127;84;21438;-69
2021/11/24 08:49:38;;;;;;;29.05;13.62;;;;;;;2.36;100.00;100228.98;1665862;84;20951;-69
2021/11/24 08:52:06;;;;;;;17.80;10.85;;;;;;;2.42;100.00;100225.83;1664709;84;20952;-68
2021/11/24 08:54:33;;;;;;;18.42;12.13;;;;;;;2.44;100.00;100223.69;1694660;83;21514;-69
2021/11/24 08:57:00;;;;;;;18.75;13.03;;;;;;;2.45;100.00;100230.22;1661302;86;21840;-69
2021/11/24 08:59:26;;;;;;;26.12;17.98;;;;;;;2.52;100.00;100224.11;1652511;85;21051;-72
2021/11/24 09:01:53;;;;;;;29.12;17.02;;;;;;;2.60;100.00;100227.77;1702072;83;20986;-75
2021/11/24 09:04:19;;;;;;;37.48;22.40;;;;;;;2.67;100.00;100222.70;1690427;84;20967;-72
2021/11/24 09:06:46;;;;;;;19.10;13.25;;;;;;;2.74;100.00;100219.30;1692927;83;20959;-72
2021/11/24 09:09:12;;;;;;;17.90;10.98;;;;;;;2.79;100.00;100216.66;1693061;84;21551;-67
2021/11/24 09:11:40;;;;;;;18.40;11.28;;;;;;;2.81;99.78;100215.34;1697712;83;20984;-67
2021/11/24 09:14:07;;;;;;;17.27;11.03;;;;;;;2.84;99.18;100213.49;1697305;83;20985;-67
2021/11/24 09:16:35;;;;;;;22.80;12.63;;;;;;;2.87;98.71;100214.89;1694461;83;21010;-70
2021/11/24 09:19:02;;;;;;;30.50;14.63;;;;;;;2.90;98.78;100213.00;1695032;83;20974;-69
2021/11/24 09:21:30;;;;;;;19.73;11.45;;;;;;;2.93;98.03;100216.58;1697526;83;21149;-68
2021/11/24 09:24:01;;;;;;;15.65;9.70;;;;;;;2.98;98.42;100209.33;1702671;83;20946;-69
2021/11/24 09:26:38;;;;;;;16.60;11.10;;;;;;;3.08;98.12;100211.37;1694248;84;21003;-66
2021/11/24 09:28:55;;;;;;;38.17;20.43;;;;;;;3.17;98.07;100212.58;1694319;84;20960;-66
2021/11/24 09:31:22;;;;;;;27.52;14.78;;;;;;;3.30;98.46;100205.43;1694512;84;20940;-66
2021/11/24 09:33:48;;;;;;;40.00;18.82;;;;;;;3.52;97.08;100213.55;1694714;84;21127;-67
2021/11/24 09:36:15;;;;;;;23.07;14.20;;;;;;;3.52;97.08;100213.55;1696152;81;21541;-68
2021/11/24 09:38:42;;;;;;;16.65;11.08;;;;;;;3.69;96.36;100211.30;1719016;83;20960;-68
2021/11/24 09:41:10;;;;;;;16.35;10.50;;;;;;;3.69;96.36;100211.30;1694534;83;20979;-66
2021/11/24 09:43:43;;;;;;;16.45;10.45;;;;;;;3.74;95.75;100211.36;1723591;82;20907;-67
2021/11/24 09:46:10;;;;;;;;;;;;;;;3.75;94.94;100214.35;1686415;83;21065;-66
2021/11/24 09:48:38;;;;;;;19.73;9.13;;;;;;;3.71;93.36;100215.41;1698903;83;20170;-67
2021/11/24 09:51:05;;;;;;;18.98;11.12;;;;;;;3.65;93.60;100216.41;1700637;82;20908;-68
2021/11/24 09:53:32;;;;;;;15.13;10.05;;;;;;;3.65;94.18;100219.13;1725529;81;20900;-68
2021/11/24 09:56:00;;;;;;;16.60;10.18;;;;;;;3.69;94.26;100214.02;1718694;81;20905;-68
2021/11/24 09:58:27;;;;;;;14.55;9.25;;;;;;;3.65;92.12;100210.45;1711553;83;21136;-68
2021/11/24 10:00:54;;;;;;;14.47;9.28;;;;;;;3.65;92.12;100210.45;1708213;84;20996;-67
2021/11/24 10:03:20;;;;;;;15.40;9.53;;;;;;;3.59;92.71;100208.75;1694975;83;20948;-67
2021/11/24 10:05:47;;;;;;;13.60;9.18;;;;;;;3.59;92.71;100208.75;1678293;85;20992;-67
2021/11/24 10:08:16;;;;;;;15.85;9.85;;;;;;;3.56;92.23;100217.94;1678672;85;21019;-67
2021/11/24 10:10:44;;;;;;;18.87;10.15;;;;;;;3.56;92.23;100217.94;1689826;84;20979;-67
2021/11/24 10:13:13;;;;;;;14.70;9.60;;;;;;;3.58;92.04;100228.00;1688525;83;20944;-67
2021/11/24 10:15:52;;;;;;;19.07;10.70;;;;;;;3.58;92.24;100217.14;1668827;85;20900;-67
2021/11/24 10:18:31;;;;;;;18.07;10.63;;;;;;;3.56;92.07;100216.58;1695252;83;20912;-67
2021/11/24 10:21:11;;;;;;;25.25;14.53;;;;;;;3.56;92.43;100205.72;1689737;83;21622;-69
2021/11/24 10:23:45;;;;;;;19.80;11.00;;;;;;;3.58;92.35;100207.64;1679804;85;21089;-68
2021/11/24 10:26:36;;;;;;;27.93;13.80;;;;;;;3.68;92.73;100198.80;1691547;83;21427;-68
2021/11/24 10:29:05;;;;;;;15.28;9.65;;;;;;;3.68;92.73;100198.80;1688932;83;21409;-68
2021/11/24 10:31:42;;;;;;;18.42;10.25;;;;;;;3.71;91.45;100199.64;1694000;84;21518;-68
2021/11/24 10:34:26;;;;;;;18.25;10.40;;;;;;;3.67;90.48;100204.77;1694371;83;20908;-68
2021/11/24 10:37:06;;;;;;;17.80;9.80;;;;;;;3.64;90.80;100208.80;1699384;84;21149;-68
2021/11/24 10:39:42;;;;;;;19.05;10.75;;;;;;;3.63;90.67;100199.56;1705855;83;21038;-68
2021/11/24 10:42:16;;;;;;;15.80;10.53;;;;;;;3.59;90.08;100208.75;1703496;83;20939;-68
2021/11/24 10:44:50;;;;;;;18.37;10.88;;;;;;;3.59;89.74;100208.75;1694696;83;20916;-69
2021/11/24 10:47:17;;;;;;;18.00;11.05;;;;;;;3.58;90.17;100195.42;1687438;83;21534;-68
2021/11/24 10:49:50;;;;;;;14.85;9.38;;;;;;;3.58;90.17;100195.42;1698615;83;21132;-68
2021/11/24 10:52:28;;;;;;;17.27;11.00;;;;;;;3.59;88.40;100199.78;1694396;83;20991;-68
2021/11/24 10:55:17;;;;;;;16.77;10.50;;;;;;;3.63;88.87;100200.91;1685939;83;20951;-67
2021/11/24 10:58:06;;;;;;;22.22;10.43;;;;;;;3.70;89.78;100193.39;1701814;81;21007;-68
2021/11/24 11:00:42;;;;;;;15.48;9.78;;;;;;;3.82;88.93;100197.33;1714115;82;21582;-70
2021/11/24 11:03:11;;;;;;;13.85;9.20;;;;;;;3.85;88.04;100192.20;1704191;83;20961;-67
2021/11/24 11:05:41;;;;;;;16.23;10.48;;;;;;;3.86;87.43;100197.91;1689392;83;21582;-68
2021/11/24 11:08:10;;;;;;;15.28;10.05;;;;;;;3.83;87.50;100181.31;1694520;84;20996;-68
2021/11/24 11:10:43;;;;;;;23.22;11.63;;;;;;;3.80;87.34;100186.72;1682131;83;21020;-70
2021/11/24 11:13:16;;;;;;;17.90;11.33;;;;;;;3.80;87.34;100186.72;1690604;83;20900;-67
2021/11/24 11:15:56;;;;;;;18.85;11.22;;;;;;;3.75;87.46;100180.41;1694625;84;21159;-67